Time;durP1;ratioP1;P1;durP2;ratioP2;P2;SDS_P1;SDS_P2;PMS_P1;PMS_P2;Temp;Humidity;BMP_temperature;BMP_pressure;BME280_temperature;BME280_humidity;BME280_pressure;Samples;Min_cycle;Max_cycle;Signal;HPM_P1;HPM_P2
2021/10/03 00:00:16;;;;;;;4.20;4.10;;;17.00;97.10;;;;;;4998551;28;20426;-90
2021/10/03 00:02:44;;;;;;;3.80;3.60;;;18.90;98.70;;;;;;4998539;28;20416;-90
2021/10/03 00:05:12;;;;;;;3.97;3.87;;;17.40;97.20;;;;;;4995183;28;20533;-90
2021/10/03 00:07:46;;;;;;;3.70;3.60;;;18.20;98.00;;;;;;4995018;28;20427;-88
2021/10/03 00:10:13;;;;;;;3.27;3.27;;;16.30;96.40;;;;;;4994657;28;20447;-90
2021/10/03 00:12:39;;;;;;;3.20;3.20;;;17.20;97.30;;;;;;4977114;28;20485;-90
2021/10/03 00:15:07;;;;;;;4.20;4.10;;;16.40;96.20;;;;;;4976713;28;20416;-89
2021/10/03 00:17:32;;;;;;;3.80;3.17;;;17.30;96.70;;;;;;4977386;28;20893;-90
2021/10/03 00:19:59;;;;;;;2.30;2.30;;;16.00;96.60;;;;;;4977034;28;20490;-90
2021/10/03 00:22:25;;;;;;;3.40;3.23;;;19.00;98.10;;;;;;4976781;28;20180;-89
2021/10/03 00:24:51;;;;;;;3.40;3.20;;;19.60;99.20;;;;;;4994502;28;20460;-89
2021/10/03 00:27:16;;;;;;;2.73;2.73;;;16.00;96.30;;;;;;4994243;28;20679;-89
2021/10/03 00:29:42;;;;;;;3.17;3.07;;;18.90;98.10;;;;;;4976966;28;20173;-90
2021/10/03 00:32:08;;;;;;;3.37;3.00;;;17.30;96.80;;;;;;4994201;28;20260;-89
2021/10/03 00:34:33;;;;;;;2.67;2.67;;;16.70;97.00;;;;;;4994665;28;20227;-90
2021/10/03 00:36:59;;;;;;;2.60;2.50;;;18.40;98.90;;;;;;4994453;28;20355;-90
2021/10/03 00:39:24;;;;;;;3.57;3.47;;;16.10;97.10;;;;;;4994266;28;20253;-89
2021/10/03 00:41:50;;;;;;;3.40;3.23;;;16.90;98.50;;;;;;4994095;28;20629;-88
2021/10/03 00:44:16;;;;;;;4.30;3.80;;;16.60;98.60;;;;;;4993990;28;20641;-90
2021/10/03 00:46:42;;;;;;;2.87;2.77;;;17.10;99.00;;;;;;4993959;28;20408;-89
2021/10/03 00:49:08;;;;;;;2.83;2.73;;;16.00;98.50;;;;;;4976195;28;20936;-89
2021/10/03 00:51:34;;;;;;;3.93;3.73;;;17.10;99.00;;;;;;4993988;28;20227;-90
2021/10/03 00:53:59;;;;;;;3.80;3.50;;;19.20;99.90;;;;;;4977372;28;20994;-89
2021/10/03 00:56:40;;;;;;;3.10;3.00;;;16.60;99.10;;;;;;4977525;28;20194;-90
2021/10/03 00:59:08;;;;;;;3.50;3.50;;;17.70;99.70;;;;;;4994896;28;20170;-90
2021/10/03 01:01:34;;;;;;;3.10;3.10;;;18.90;99.90;;;;;;4997365;28;20409;-89
2021/10/03 01:04:02;;;;;;;3.57;3.27;;;15.80;97.40;;;;;;4997570;28;20486;-90
2021/10/03 01:06:28;;;;;;;3.40;3.30;;;17.90;99.90;;;;;;4997869;28;20419;-90
2021/10/03 01:08:53;;;;;;;2.90;2.90;;;16.90;97.30;;;;;;4997397;28;20424;-89
2021/10/03 01:11:19;;;;;;;3.40;3.27;;;16.00;96.40;;;;;;4997719;28;20228;-88
2021/10/03 01:13:48;;;;;;;2.87;2.87;;;17.30;96.80;;;;;;4980139;28;20176;-89
2021/10/03 01:16:14;;;;;;;2.77;2.77;;;17.20;96.70;;;;;;4997264;28;20195;-90
2021/10/03 01:18:40;;;;;;;3.50;2.63;;;17.40;96.20;;;;;;4997170;28;20408;-89
2021/10/03 01:21:07;;;;;;;3.23;3.13;;;17.20;95.50;;;;;;4997341;28;20404;-89
2021/10/03 01:23:34;;;;;;;2.20;2.20;;;16.20;94.60;;;;;;4996777;28;20280;-89
2021/10/03 01:26:00;;;;;;;3.03;2.87;;;15.60;93.50;;;;;;4996996;28;20954;-90
2021/10/03 01:28:25;;;;;;;2.83;2.73;;;16.60;94.00;;;;;;4996708;28;20413;-89
2021/10/03 01:30:53;;;;;;;3.23;2.77;;;16.50;93.30;;;;;;4997151;28;20448;-90
2021/10/03 01:33:21;;;;;;;2.97;2.97;;;16.50;92.80;;;;;;4997993;28;20170;-90
2021/10/03 01:35:47;;;;;;;4.33;3.27;;;20.00;95.90;;;;;;4997472;28;20417;-90
2021/10/03 01:38:15;;;;;;;2.80;2.80;;;17.20;94.60;;;;;;4997510;28;20820;-88
2021/10/03 01:40:44;;;;;;;2.50;2.50;;;16.30;93.30;;;;;;4980577;28;20431;-89
2021/10/03 01:43:11;;;;;;;3.00;2.87;;;17.40;93.90;;;;;;4997247;28;20557;-90
2021/10/03 01:45:37;;;;;;;2.83;2.83;;;19.60;95.70;;;;;;4999448;28;20412;-91
2021/10/03 01:48:21;;;;;;;3.10;2.90;;;19.30;95.90;;;;;;4997941;28;20494;-89
2021/10/03 01:50:49;;;;;;;2.93;2.73;;;17.40;94.70;;;;;;4998037;28;20227;-89
2021/10/03 01:53:19;;;;;;;3.23;3.03;;;15.90;93.60;;;;;;4980536;28;20514;-91
2021/10/03 01:55:45;;;;;;;2.40;2.40;;;17.00;94.60;;;;;;4997125;28;20416;-90
2021/10/03 01:58:13;;;;;;;2.30;2.20;;;17.20;95.30;;;;;;4979639;28;20439;-89
2021/10/03 02:00:41;;;;;;;1.93;1.83;;;17.90;95.10;;;;;;4979062;28;20780;-90
2021/10/03 02:03:08;;;;;;;3.00;2.90;;;17.10;94.80;;;;;;4997028;28;20419;-89
2021/10/03 02:05:45;;;;;;;2.53;2.50;;;19.40;96.80;;;;;;4979654;28;20432;-89
2021/10/03 02:08:12;;;;;;;2.37;2.37;;;17.00;94.60;;;;;;4978783;28;20421;-89
2021/10/03 02:10:40;;;;;;;2.37;2.30;;;19.40;96.20;;;;;;4996531;28;20420;-89
2021/10/03 02:13:07;;;;;;;2.87;2.77;;;17.50;94.80;;;;;;4995184;28;20491;-89
2021/10/03 02:15:33;;;;;;;2.37;2.17;;;16.50;93.80;;;;;;4995790;28;20814;-88
2021/10/03 02:17:58;;;;;;;1.73;1.73;;;17.80;94.60;;;;;;4978445;28;20482;-88
2021/10/03 02:20:25;;;;;;;2.73;2.60;;;17.20;93.80;;;;;;4978498;28;20428;-89
2021/10/03 02:22:53;;;;;;;3.97;2.23;;;17.60;93.60;;;;;;4978572;28;20263;-90
2021/10/03 02:25:19;;;;;;;2.10;2.10;;;17.60;93.50;;;;;;4995716;28;20460;-90
2021/10/03 02:27:45;;;;;;;1.73;1.73;;;16.20;92.40;;;;;;4977859;28;20436;-89
2021/10/03 02:30:11;;;;;;;2.20;2.20;;;17.60;92.80;;;;;;4995077;28;20440;-90
2021/10/03 02:32:37;;;;;;;2.60;2.43;;;17.70;92.80;;;;;;4977576;28;20417;-89
2021/10/03 02:35:06;;;;;;;2.30;2.10;;;18.90;93.20;;;;;;4994975;28;20412;-90
2021/10/03 02:37:32;;;;;;;2.30;2.20;;;17.70;92.30;;;;;;4994932;28;20409;-89
2021/10/03 02:39:58;;;;;;;2.53;2.53;;;17.50;92.30;;;;;;4977452;28;20440;-89
2021/10/03 02:42:24;;;;;;;2.87;2.60;;;16.50;91.30;;;;;;4994619;28;20451;-89
2021/10/03 02:44:50;;;;;;;2.10;2.10;;;16.40;91.30;;;;;;4977512;28;20496;-89
2021/10/03 02:47:16;;;;;;;4.93;2.30;;;16.40;91.30;;;;;;4994937;28;20170;-89
2021/10/03 02:49:45;;;;;;;2.43;2.43;;;16.80;91.90;;;;;;4995077;28;20409;-89
2021/10/03 02:52:12;;;;;;;2.03;1.93;;;16.50;91.30;;;;;;4994982;28;20240;-90
2021/10/03 02:54:39;;;;;;;1.60;1.60;;;19.30;93.30;;;;;;4995178;28;20420;-90
2021/10/03 02:57:06;;;;;;;2.47;2.37;;;16.60;91.40;;;;;;4994497;28;20915;-90
2021/10/03 02:59:32;;;;;;;2.40;2.30;;;17.50;92.90;;;;;;4994679;28;20410;-89
2021/10/03 03:01:57;;;;;;;2.60;2.60;;;17.20;92.70;;;;;;4994677;28;20420;-89
2021/10/03 03:04:23;;;;;;;2.60;2.50;;;17.70;93.50;;;;;;4977071;28;20216;-90
2021/10/03 03:06:49;;;;;;;1.93;1.83;;;16.10;91.90;;;;;;4995086;28;20161;-90
2021/10/03 03:09:15;;;;;;;2.47;2.47;;;16.30;92.60;;;;;;4977296;28;20467;-89
2021/10/03 03:11:41;;;;;;;2.83;2.63;;;;;;;;;;4977068;28;20196;-90
2021/10/03 03:14:06;;;;;;;3.40;3.20;;;17.30;92.90;;;;;;4994808;28;20220;-90
2021/10/03 03:16:32;;;;;;;2.83;2.83;;;15.50;92.90;;;;;;4994234;28;20990;-89
2021/10/03 03:18:58;;;;;;;3.77;3.47;;;16.70;93.50;;;;;;4977137;28;20652;-91
2021/10/03 03:21:24;;;;;;;3.43;2.57;;;16.90;94.90;;;;;;4994518;28;20169;-88
2021/10/03 03:23:50;;;;;;;4.20;3.67;;;16.60;94.50;;;;;;4994676;28;20224;-91
2021/10/03 03:26:15;;;;;;;3.00;2.90;;;16.00;94.20;;;;;;4977205;28;20975;-90
2021/10/03 03:28:41;;;;;;;2.90;2.80;;;16.90;95.20;;;;;;4977389;28;20504;-89
2021/10/03 03:31:06;;;;;;;4.13;3.83;;;16.40;95.20;;;;;;4978771;28;20212;-89
2021/10/03 03:33:32;;;;;;;3.93;3.77;;;16.30;95.70;;;;;;4978022;28;20175;-93
2021/10/03 03:35:58;;;;;;;3.57;3.40;;;16.30;95.50;;;;;;4977486;28;20209;-91
2021/10/03 03:38:24;;;;;;;3.47;3.27;;;15.50;95.10;;;;;;4995148;28;20161;-90
2021/10/03 03:40:50;;;;;;;4.40;4.10;;;16.20;96.50;;;;;;4977353;28;20257;-89
2021/10/03 03:43:15;;;;;;;4.47;4.27;;;16.20;96.00;;;;;;4994634;28;20994;-89
2021/10/03 03:45:41;;;;;;;4.00;3.80;;;16.40;95.60;;;;;;4994268;28;20645;-89
2021/10/03 03:48:06;;;;;;;4.00;3.90;;;18.70;97.10;;;;;;4977167;28;20181;-89
2021/10/03 03:50:34;;;;;;;4.63;4.43;;;18.90;97.30;;;;;;4977274;28;20707;-90
2021/10/03 03:53:00;;;;;;;3.67;3.57;;;15.10;94.80;;;;;;4976988;28;20223;-90
2021/10/03 03:55:26;;;;;;;3.97;3.80;;;15.60;94.90;;;;;;4976857;28;20420;-91
2021/10/03 03:57:52;;;;;;;3.40;3.40;;;16.70;95.50;;;;;;4994077;28;20425;-90
2021/10/03 04:00:19;;;;;;;4.20;3.90;;;16.40;94.80;;;;;;4976829;28;20420;-90
2021/10/03 04:02:46;;;;;;;3.90;3.70;;;18.70;95.50;;;;;;4976679;28;20425;-90
2021/10/03 04:05:11;;;;;;;3.97;3.90;;;15.70;93.90;;;;;;4994008;28;20554;-90
2021/10/03 04:07:37;;;;;;;3.90;3.80;;;15.30;92.90;;;;;;4994347;28;20440;-91
2021/10/03 04:10:04;;;;;;;3.93;3.70;;;15.90;92.20;;;;;;4976623;28;20683;-90
2021/10/03 04:12:30;;;;;;;4.00;3.80;;;17.10;92.70;;;;;;4994208;28;20170;-91
2021/10/03 04:14:56;;;;;;;4.30;4.10;;;16.90;92.60;;;;;;4976751;28;20424;-89
2021/10/03 04:17:21;;;;;;;4.27;4.17;;;17.80;92.00;;;;;;4976757;28;20551;-91
2021/10/03 04:19:47;;;;;;;4.50;4.30;;;17.30;91.40;;;;;;4976778;28;20421;-89
2021/10/03 04:22:12;;;;;;;4.97;4.77;;;17.20;91.70;;;;;;4976792;28;20369;-90
2021/10/03 04:24:38;;;;;;;3.83;3.70;;;17.50;92.00;;;;;;4976809;28;20202;-90
2021/10/03 04:27:04;;;;;;;4.77;4.50;;;19.20;93.40;;;;;;4994258;28;20248;-90
2021/10/03 04:29:29;;;;;;;5.27;5.07;;;17.30;92.80;;;;;;4976865;28;20236;-90
2021/10/03 04:31:55;;;;;;;4.60;4.17;;;17.50;93.70;;;;;;4994359;28;20169;-90
2021/10/03 04:34:20;;;;;;;5.30;5.00;;;17.00;92.30;;;;;;4994342;28;20174;-91
2021/10/03 04:36:46;;;;;;;4.97;4.87;;;16.70;92.20;;;;;;4980368;28;20252;-89
2021/10/03 04:39:12;;;;;;;5.43;5.20;;;16.80;92.40;;;;;;4980493;28;20181;-91
2021/10/03 04:41:38;;;;;;;4.70;4.60;;;18.50;93.90;;;;;;4980817;28;20204;-91
2021/10/03 04:44:04;;;;;;;6.43;4.90;;;15.10;91.10;;;;;;4980194;28;20484;-91
2021/10/03 04:46:30;;;;;;;4.90;4.60;;;17.80;93.60;;;;;;4997648;28;20419;-90
2021/10/03 04:48:56;;;;;;;5.67;5.37;;;17.10;92.20;;;;;;4997581;28;20284;-92
2021/10/03 04:51:21;;;;;;;4.77;4.57;;;19.20;93.80;;;;;;4980036;28;20559;-89
2021/10/03 04:53:47;;;;;;;4.37;4.17;;;17.10;91.80;;;;;;4979800;28;20625;-88
2021/10/03 04:56:12;;;;;;;5.73;5.20;;;17.60;91.60;;;;;;4997356;28;20248;-89
2021/10/03 04:58:38;;;;;;;5.20;5.00;;;17.30;90.70;;;;;;4997245;28;20177;-89
2021/10/03 05:01:04;;;;;;;4.83;4.63;;;18.50;91.90;;;;;;4979632;28;20236;-90
2021/10/03 05:03:30;;;;;;;6.63;5.13;;;17.00;90.60;;;;;;4997248;28;20216;-89
2021/10/03 05:05:56;;;;;;;6.43;5.60;;;17.20;90.60;;;;;;4997417;28;20169;-90
2021/10/03 05:08:22;;;;;;;4.03;3.93;;;16.50;90.10;;;;;;4997266;28;20419;-89
2021/10/03 05:10:47;;;;;;;5.10;4.90;;;18.00;90.90;;;;;;4996925;28;20173;-89
2021/10/03 05:13:13;;;;;;;5.80;4.80;;;16.90;90.70;;;;;;4996796;28;20203;-89
2021/10/03 05:15:39;;;;;;;5.93;5.67;;;16.20;89.60;;;;;;4997599;28;20180;-90
2021/10/03 05:18:04;;;;;;;7.83;5.90;;;18.40;91.50;;;;;;4979786;28;20173;-89
2021/10/03 05:20:30;;;;;;;5.00;4.80;;;17.20;90.50;;;;;;4979585;28;20211;-90
2021/10/03 05:22:55;;;;;;;5.40;5.10;;;16.20;90.10;;;;;;4979493;28;20165;-89
2021/10/03 05:25:22;;;;;;;5.50;5.20;;;18.60;92.00;;;;;;4997136;28;20213;-90
2021/10/03 05:27:47;;;;;;;6.10;5.80;;;17.00;90.70;;;;;;4996911;28;20255;-90
2021/10/03 05:30:13;;;;;;;4.63;4.53;;;18.00;91.90;;;;;;4996976;28;20424;-90
2021/10/03 05:32:39;;;;;;;5.43;5.13;;;18.10;92.60;;;;;;4979463;28;20173;-90
2021/10/03 05:35:05;;;;;;;6.23;5.93;;;20.00;94.80;;;;;;4979440;28;20165;-91
2021/10/03 05:37:31;;;;;;;5.50;5.20;;;17.40;92.20;;;;;;4997133;28;20173;-92
2021/10/03 05:39:57;;;;;;;6.23;5.73;;;;;;;;;;4997099;28;20471;-91
2021/10/03 05:42:23;;;;;;;5.90;5.40;;;17.20;92.70;;;;;;4997465;28;20429;-90
2021/10/03 05:44:48;;;;;;;6.30;5.97;;;16.80;93.80;;;;;;4996685;28;20514;-90
2021/10/03 05:47:14;;;;;;;6.10;5.80;;;17.40;95.60;;;;;;4978284;28;20420;-89
2021/10/03 05:49:40;;;;;;;8.10;6.87;;;;;;;;;;4996858;28;20576;-90
2021/10/03 05:52:06;;;;;;;6.70;6.10;;;17.00;95.00;;;;;;4979200;28;20735;-90
2021/10/03 05:54:32;;;;;;;6.27;5.87;;;16.70;95.80;;;;;;4634072;28;10000028;-91
2021/10/03 05:56:58;;;;;;;7.30;6.70;;;;;;;;;;4976645;28;20428;-90
2021/10/03 05:59:23;;;;;;;7.57;7.13;;;16.80;96.30;;;;;;4994135;28;20204;-90
2021/10/03 06:01:49;;;;;;;7.20;6.60;;;16.70;96.40;;;;;;4994267;28;20519;-89
2021/10/03 06:04:14;;;;;;;7.27;6.70;;;15.20;96.30;;;;;;4977918;28;20737;-90
2021/10/03 06:06:40;;;;;;;7.07;6.40;;;18.20;98.60;;;;;;4975973;28;20188;-90
2021/10/03 06:09:06;;;;;;;7.23;6.67;;;17.60;97.90;;;;;;4976561;28;20660;-90
2021/10/03 06:11:32;;;;;;;6.87;6.47;;;;;;;;;;4994041;28;20180;-90
2021/10/03 06:13:58;;;;;;;7.27;6.60;;;16.80;97.40;;;;;;4978204;28;20280;-89
2021/10/03 06:16:24;;;;;;;7.00;6.40;;;16.10;97.10;;;;;;4976703;28;20782;-89
2021/10/03 06:18:50;;;;;;;7.50;7.00;;;16.50;97.60;;;;;;4977153;28;20433;-89
2021/10/03 06:21:16;;;;;;;7.83;7.23;;;18.00;99.10;;;;;;4993910;28;20435;-90
2021/10/03 06:23:43;;;;;;;7.60;6.97;;;16.50;98.30;;;;;;4994750;28;20299;-90
2021/10/03 06:26:10;;;;;;;9.00;7.13;;;18.30;99.50;;;;;;4993857;28;20424;-90
2021/10/03 06:28:35;;;;;;;7.70;7.20;;;15.40;98.00;;;;;;4976338;28;20428;-90
2021/10/03 06:31:01;;;;;;;7.83;7.20;;;18.60;99.90;;;;;;4993443;28;20427;-90
2021/10/03 06:33:27;;;;;;;7.37;6.70;;;15.70;99.50;;;;;;4976234;28;20177;-90
2021/10/03 06:35:52;;;;;;;6.87;6.50;;;16.30;99.70;;;;;;4976618;28;20529;-91
2021/10/03 06:38:18;;;;;;;7.80;7.10;;;16.80;99.50;;;;;;4993997;28;20177;-89
2021/10/03 06:40:43;;;;;;;7.20;6.87;;;17.90;99.90;;;;;;4994426;28;20180;-90
2021/10/03 06:43:09;;;;;;;7.67;7.00;;;16.40;99.70;;;;;;4994573;28;20173;-90
2021/10/03 06:45:35;;;;;;;7.03;6.63;;;16.90;99.90;;;;;;4975982;28;20212;-89
2021/10/03 06:48:00;;;;;;;8.67;7.63;;;18.00;99.90;;;;;;4993667;28;20184;-90
2021/10/03 06:50:26;;;;;;;7.40;6.90;;;18.50;99.90;;;;;;4975594;28;20192;-89
2021/10/03 06:52:52;;;;;;;7.53;6.90;;;;;;;;;;4975900;28;20177;-89
2021/10/03 06:55:19;;;;;;;8.07;7.37;;;16.90;99.40;;;;;;4988795;28;20616;-90
2021/10/03 06:57:44;;;;;;;9.60;8.87;;;17.40;99.90;;;;;;4998371;28;20427;-89
2021/10/03 07:00:11;;;;;;;8.00;7.10;;;17.10;99.90;;;;;;5016803;28;20415;-89
2021/10/03 07:02:40;;;;;;;9.87;7.67;;;16.80;99.90;;;;;;4984177;28;20443;-90
2021/10/03 07:05:13;;;;;;;6.37;5.97;;;18.00;99.90;;;;;;5003957;28;20510;-90
2021/10/03 07:07:38;;;;;;;8.27;7.57;;;18.20;99.90;;;;;;5005653;28;20423;-91
2021/10/03 07:10:05;;;;;;;7.30;6.80;;;18.90;99.90;;;;;;5023546;28;20485;-91
2021/10/03 07:12:32;;;;;;;8.93;7.20;;;15.20;99.70;;;;;;5022068;28;20173;-91
2021/10/03 07:14:59;;;;;;;8.10;7.30;;;17.30;99.90;;;;;;4998769;28;20458;-88
2021/10/03 07:17:36;;;;;;;7.70;7.20;;;19.10;99.90;;;;;;5016371;28;20438;-88
2021/10/03 07:20:02;;;;;;;7.53;7.00;;;19.00;99.90;;;;;;4998096;28;20431;-90
2021/10/03 07:22:28;;;;;;;8.63;7.93;;;17.20;99.90;;;;;;5014883;28;20423;-90
2021/10/03 07:24:54;;;;;;;7.63;6.77;;;;;;;;;;5015728;28;20498;-90
2021/10/03 07:27:19;;;;;;;7.70;7.00;;;16.90;99.90;;;;;;4996533;28;20254;-91
2021/10/03 07:29:45;;;;;;;7.63;6.93;;;;;;;;;;4996529;28;20427;-88
2021/10/03 07:32:11;;;;;;;7.47;6.97;;;16.90;99.90;;;;;;4999376;28;20179;-89
2021/10/03 07:34:37;;;;;;;7.27;6.67;;;17.20;99.90;;;;;;4997654;28;20482;-90
2021/10/03 07:37:03;;;;;;;7.20;6.70;;;15.90;99.90;;;;;;5004482;28;20887;-89
2021/10/03 07:39:30;;;;;;;7.60;6.90;;;17.00;99.90;;;;;;5016992;28;20171;-89
2021/10/03 07:41:56;;;;;;;8.07;7.20;;;19.70;99.90;;;;;;5001460;28;20925;-90
2021/10/03 07:44:22;;;;;;;7.97;7.40;;;;;;;;;;5001661;28;20459;-90
2021/10/03 07:46:47;;;;;;;6.57;6.07;;;16.90;99.90;;;;;;5001855;28;20172;-92
2021/10/03 07:49:14;;;;;;;7.63;7.13;;;;;;;;;;5000223;28;20523;-91
2021/10/03 07:51:44;;;;;;;8.93;8.07;;;17.00;99.90;;;;;;4998560;28;20259;-92
2021/10/03 07:54:10;;;;;;;8.63;7.73;;;17.40;99.90;;;;;;5000661;28;20491;-89
2021/10/03 07:56:36;;;;;;;8.20;7.70;;;17.30;99.90;;;;;;5016815;28;20929;-90
2021/10/03 07:59:02;;;;;;;6.90;6.47;;;;;;;;;;4998688;28;20624;-90
2021/10/03 08:01:27;;;;;;;7.60;6.90;;;16.80;99.90;;;;;;4996724;28;20181;-90
2021/10/03 08:03:55;;;;;;;8.17;7.37;;;;;;;;;;4981977;28;20560;-90
2021/10/03 08:06:31;;;;;;;7.83;7.30;;;16.90;99.90;;;;;;4980422;28;20181;-89
2021/10/03 08:09:00;;;;;;;8.90;8.20;;;17.40;99.90;;;;;;4982746;28;20483;-89
2021/10/03 08:14:16;;;;;;;8.30;7.60;;;19.00;99.90;;;;;;5002148;28;20404;-92
2021/10/03 08:16:44;;;;;;;9.20;8.60;;;18.20;99.90;;;;;;4986106;28;20490;-91
2021/10/03 08:19:10;;;;;;;7.73;7.23;;;19.90;99.90;;;;;;5003381;28;20424;-91
2021/10/03 08:21:38;;;;;;;8.07;7.47;;;;;;;;;;4984593;28;20412;-91
2021/10/03 08:24:04;;;;;;;8.73;7.80;;;16.70;99.90;;;;;;4982890;28;20201;-90
2021/10/03 08:26:38;;;;;;;9.13;8.33;;;17.70;99.90;;;;;;4983137;28;20417;-92
2021/10/03 08:29:03;;;;;;;6.90;6.50;;;17.60;99.90;;;;;;5000215;28;20424;-89
2021/10/03 08:31:31;;;;;;;8.07;7.47;;;18.60;99.90;;;;;;4985603;28;20851;-91
2021/10/03 08:33:58;;;;;;;6.40;6.00;;;17.60;99.90;;;;;;4986909;28;20197;-92
2021/10/03 08:36:24;;;;;;;6.50;6.00;;;17.40;99.90;;;;;;4982714;28;20421;-90
2021/10/03 08:38:53;;;;;;;8.03;7.43;;;18.40;99.90;;;;;;4966900;28;20436;-91
2021/10/03 08:41:27;;;;;;;6.83;6.20;;;19.20;99.90;;;;;;4978692;28;20420;-90
2021/10/03 08:43:53;;;;;;;7.00;6.60;;;17.30;99.90;;;;;;4972562;28;20707;-92
2021/10/03 08:46:24;;;;;;;7.63;7.00;;;19.40;99.90;;;;;;5006270;28;20409;-91
2021/10/03 08:48:50;;;;;;;7.37;6.97;;;18.90;99.90;;;;;;4990220;28;20245;-91
2021/10/03 08:51:18;;;;;;;11.07;7.70;;;18.10;99.90;;;;;;4987999;28;20448;-90
2021/10/03 08:53:44;;;;;;;8.10;7.50;;;16.20;99.90;;;;;;4986247;28;20923;-91
2021/10/03 08:56:10;;;;;;;8.03;7.53;;;19.00;99.90;;;;;;4999982;28;20755;-90
2021/10/03 08:58:42;;;;;;;6.40;5.90;;;20.30;99.90;;;;;;4983609;28;20424;-90
2021/10/03 09:01:10;;;;;;;7.40;6.90;;;19.80;99.90;;;;;;4983934;28;20930;-91
2021/10/03 09:04:00;;;;;;;7.70;7.30;;;18.80;99.90;;;;;;4985730;28;20515;-91
2021/10/03 09:06:34;;;;;;;7.67;7.17;;;16.50;99.90;;;;;;4960507;28;20839;-88
2021/10/03 09:09:06;;;;;;;7.37;6.70;;;19.40;99.90;;;;;;4993802;28;20411;-90
2021/10/03 09:11:47;;;;;;;;;;;;;;;;;;;;;
2021/10/03 09:14:36;;;;;;;8.37;7.60;;;16.20;99.90;;;;;;5005270;28;20472;-90
2021/10/03 09:17:12;;;;;;;6.40;6.10;;;18.70;99.90;;;;;;5002118;28;20400;-90
2021/10/03 09:19:37;;;;;;;8.03;7.50;;;19.40;99.90;;;;;;4988589;28;20432;-90
2021/10/03 09:22:20;;;;;;;6.70;6.10;;;18.80;99.90;;;;;;5004606;28;20771;-91
2021/10/03 09:25:05;;;;;;;;;;;;;;;;;;;;;
2021/10/03 09:27:54;;;;;;;7.70;7.20;;;17.10;99.90;;;;;;5010402;28;20432;-92
2021/10/03 09:30:22;;;;;;;6.73;6.43;;;14.90;99.90;;;;;;4985036;28;20950;-90
2021/10/03 09:36:53;;;;;;;6.83;5.93;;;17.60;99.90;;;;;;4883886;29;20432;-92
2021/10/03 09:40:01;;;;;;;7.00;6.50;;;16.10;99.90;;;;;;4916488;29;20412;-91
2021/10/03 09:42:40;;;;;;;6.20;5.90;;;16.00;99.90;;;;;;4896919;29;20429;-91
2021/10/03 09:45:15;;;;;;;7.40;6.90;;;17.10;99.90;;;;;;4883589;29;20484;-92
2021/10/03 09:47:46;;;;;;;7.07;5.70;;;17.90;99.90;;;;;;4911543;29;20557;-92
2021/10/03 09:50:15;;;;;;;7.23;6.73;;;20.10;99.90;;;;;;4901321;29;20468;-91
2021/10/03 09:55:25;;;;;;;6.80;6.23;;;17.20;99.90;;;;;;5160286;23;20489;-92
2021/10/03 09:58:28;;;;;;;6.83;6.20;;;17.90;99.90;;;;;;4978020;29;20458;-92
2021/10/03 10:04:08;;;;;;;6.73;6.33;;;17.60;99.90;;;;;;5115839;23;20460;-93
2021/10/03 10:07:05;;;;;;;;;;;;;;;;;;;;;
2021/10/03 10:12:14;;;;;;;6.70;6.30;;;17.40;99.90;;;;;;5064691;23;20494;-91
2021/10/03 10:14:48;;;;;;;5.60;5.30;;;21.60;99.90;;;;;;4647569;28;9999704;-92
2021/10/03 10:17:38;;;;;;;6.03;5.73;;;18.20;99.90;;;;;;4984364;28;21126;-89
2021/10/03 10:20:22;;;;;;;6.10;5.80;;;18.90;99.90;;;;;;4986907;28;20417;-91
2021/10/03 10:23:26;;;;;;;6.30;5.90;;;16.40;99.90;;;;;;4985003;28;20412;-90
2021/10/03 10:26:02;;;;;;;6.40;6.10;;;17.60;99.90;;;;;;4981651;28;20447;-89
2021/10/03 10:28:38;;;;;;;7.80;6.90;;;17.80;99.90;;;;;;4995585;28;20418;-87
2021/10/03 10:31:18;;;;;;;6.27;5.93;;;20.40;99.90;;;;;;4994044;28;20444;-88
2021/10/03 10:33:49;;;;;;;4.90;4.60;;;18.20;99.90;;;;;;4994564;28;20436;-87
2021/10/03 10:36:28;;;;;;;5.40;5.07;;;16.40;99.90;;;;;;4998048;28;20427;-87
2021/10/03 10:39:12;;;;;;;6.10;5.53;;;17.70;99.50;;;;;;4977961;28;20428;-89
2021/10/03 10:41:40;;;;;;;6.10;5.70;;;17.50;99.70;;;;;;4984047;28;20447;-91
2021/10/03 10:44:27;;;;;;;6.10;5.80;;;17.60;99.90;;;;;;4996871;28;20460;-91
2021/10/03 10:46:57;;;;;;;7.30;6.80;;;18.10;99.90;;;;;;4977637;28;20918;-88
2021/10/03 10:49:30;;;;;;;7.27;6.77;;;17.40;99.90;;;;;;4991530;28;21101;-88
2021/10/03 10:52:18;;;;;;;6.10;5.80;;;17.90;99.90;;;;;;4970960;28;20975;-89
2021/10/03 10:55:04;;;;;;;6.70;6.33;;;17.70;99.60;;;;;;4993375;28;20428;-88
2021/10/03 10:58:03;;;;;;;;;;;;;;;;;;;;;
2021/10/03 11:00:32;;;;;;;9.60;5.77;;;17.80;99.80;;;;;;4992909;28;20412;-88
2021/10/03 11:03:01;;;;;;;5.60;5.30;;;20.20;99.90;;;;;;4975416;28;20412;-89
2021/10/03 11:05:40;;;;;;;5.80;5.40;;;16.20;98.70;;;;;;4975852;28;20468;-89
2021/10/03 11:08:12;;;;;;;5.93;5.60;;;15.70;98.20;;;;;;4976426;28;20421;-89
2021/10/03 11:10:59;;;;;;;5.40;5.00;;;20.50;99.90;;;;;;4976776;28;20436;-88
2021/10/03 11:13:49;;;;;;;6.67;6.10;;;16.90;97.20;;;;;;4982279;28;20467;-90
2021/10/03 11:16:29;;;;;;;5.33;5.13;;;18.70;98.70;;;;;;5014575;28;20891;-90
2021/10/03 11:19:06;;;;;;;5.50;5.20;;;18.50;98.20;;;;;;5015439;28;20453;-87
2021/10/03 11:21:55;;;;;;;5.60;5.20;;;18.20;97.60;;;;;;4997049;28;20985;-89
2021/10/03 11:24:35;;;;;;;5.90;5.70;;;18.40;96.70;;;;;;5020389;28;20462;-90
2021/10/03 11:27:11;;;;;;;5.37;5.17;;;21.60;99.80;;;;;;5000917;28;20458;-90
2021/10/03 11:30:04;;;;;;;4.90;4.73;;;18.30;99.20;;;;;;5017565;28;20406;-89
2021/10/03 11:32:37;;;;;;;4.93;4.70;;;19.60;97.50;;;;;;5015491;28;20511;-89
2021/10/03 11:35:17;;;;;;;6.03;5.60;;;20.90;97.70;;;;;;4984669;28;20507;-89
2021/10/03 11:37:52;;;;;;;5.80;5.50;;;18.90;96.50;;;;;;4977664;28;20416;-90
2021/10/03 11:40:27;;;;;;;5.83;5.53;;;18.90;96.50;;;;;;4963370;28;20532;-90
2021/10/03 11:43:00;;;;;;;5.90;5.40;;;19.90;99.90;;;;;;4959794;28;20435;-90
2021/10/03 11:45:33;;;;;;;6.00;5.50;;;18.50;95.40;;;;;;4959573;28;20476;-90
2021/10/03 11:48:04;;;;;;;6.33;5.93;;;16.50;94.40;;;;;;4979115;28;20496;-90
2021/10/03 11:50:45;;;;;;;6.90;5.37;;;21.70;98.20;;;;;;4978745;28;20433;-91
2021/10/03 11:53:24;;;;;;;5.63;5.33;;;20.50;97.00;;;;;;4961263;28;20425;-91
2021/10/03 11:55:52;;;;;;;5.97;5.40;;;21.60;97.80;;;;;;4960448;28;20417;-90
2021/10/03 11:58:19;;;;;;;4.60;4.43;;;20.70;97.80;;;;;;4977140;28;20959;-90
2021/10/03 12:00:57;;;;;;;5.70;5.37;;;19.20;95.60;;;;;;4959828;28;20459;-90
2021/10/03 12:03:26;;;;;;;6.10;5.80;;;17.90;94.80;;;;;;4962036;28;20421;-89
2021/10/03 12:05:52;;;;;;;6.80;6.30;;;21.00;98.10;;;;;;4967851;28;20432;-89
2021/10/03 12:08:22;;;;;;;4.13;4.03;;;21.00;98.00;;;;;;4970418;28;20477;-89
2021/10/03 12:11:01;;;;;;;6.37;5.97;;;18.50;99.80;;;;;;4988159;28;20425;-89
2021/10/03 12:13:35;;;;;;;6.60;6.07;;;18.40;97.20;;;;;;4964785;28;20460;-90
2021/10/03 12:16:07;;;;;;;5.60;5.30;;;18.90;97.60;;;;;;4984104;28;20484;-88
2021/10/03 12:18:49;;;;;;;5.53;5.20;;;20.10;99.30;;;;;;4984863;28;20414;-89
2021/10/03 12:21:28;;;;;;;6.90;6.30;;;18.80;98.60;;;;;;4965016;28;20485;-91
2021/10/03 12:24:03;;;;;;;6.23;5.73;;;18.20;98.30;;;;;;4947434;28;20491;-90
2021/10/03 12:26:38;;;;;;;6.27;5.77;;;21.10;99.00;;;;;;4981271;28;20495;-90
2021/10/03 12:29:07;;;;;;;5.83;5.63;;;19.30;99.80;;;;;;4982470;28;20418;-89
2021/10/03 12:31:47;;;;;;;5.20;5.00;;;21.00;99.80;;;;;;4971950;28;20413;-88
2021/10/03 12:34:15;;;;;;;5.00;4.73;;;19.40;96.80;;;;;;4984045;28;20452;-91
2021/10/03 12:36:49;;;;;;;5.63;5.10;;;20.90;99.90;;;;;;4984958;28;20522;-90
2021/10/03 12:39:18;;;;;;;4.70;4.50;;;18.80;96.60;;;;;;4967557;28;20417;-92
2021/10/03 12:41:48;;;;;;;6.00;5.80;;;20.00;97.00;;;;;;4966816;28;20417;-90
2021/10/03 12:44:31;;;;;;;4.33;4.13;;;21.40;98.60;;;;;;4981271;28;20898;-90
2021/10/03 12:46:58;;;;;;;5.70;5.40;;;18.80;94.10;;;;;;4960209;28;20964;-89
2021/10/03 12:49:27;;;;;;;5.50;5.10;;;21.70;96.00;;;;;;4964188;28;20450;-91
2021/10/03 12:51:54;;;;;;;5.37;5.07;;;19.50;94.50;;;;;;4963297;28;20442;-91
2021/10/03 12:54:24;;;;;;;4.70;4.50;;;20.50;98.60;;;;;;4975924;28;20452;-91
2021/10/03 12:56:56;;;;;;;8.40;4.40;;;23.90;98.90;;;;;;4948385;29;20458;-90
2021/10/03 12:59:24;;;;;;;4.50;4.20;;;19.30;92.60;;;;;;4965779;28;20422;-91
2021/10/03 13:01:51;;;;;;;5.57;5.17;;;21.10;94.00;;;;;;4968991;28;20450;-92
2021/10/03 13:04:17;;;;;;;4.87;4.77;;;21.90;95.30;;;;;;4964195;28;20481;-91
2021/10/03 13:06:42;;;;;;;4.33;4.23;;;21.90;94.10;;;;;;4965143;28;20445;-89
2021/10/03 13:09:08;;;;;;;5.97;5.67;;;20.40;92.10;;;;;;4962933;28;20234;-91
2021/10/03 13:11:36;;;;;;;4.20;3.90;;;21.10;91.60;;;;;;4980148;28;20716;-89
2021/10/03 13:14:01;;;;;;;5.30;4.80;;;20.10;90.20;;;;;;4988142;28;20225;-88
2021/10/03 13:16:27;;;;;;;4.20;4.10;;;18.40;90.90;;;;;;4978864;28;20437;-91
2021/10/03 13:18:52;;;;;;;4.70;4.50;;;21.40;91.50;;;;;;4977288;28;20265;-90
2021/10/03 13:21:18;;;;;;;3.87;3.77;;;;;;;;;;4977425;28;20269;-90